METAR Data
IDs: Format: Raw Decoded Include TAF

Data at: 1853 UTC 14 Dec 2018

KVCT 141851Z 30019G24KT 10SM OVC033 11/03 A3006 RMK AO2 SLP180 T01060028
KVCT 141751Z 30019G28KT 10SM OVC033 10/03 A3008 RMK AO2 PK WND 31028/1744 SLP186 T01000028 10122 20089 51015
KVCT 141651Z 30021G27KT 10SM SCT032 12/03 A3007 RMK AO2 PK WND 29029/1605 SLP183 T01170028
KVCT 141551Z 30022G27KT 10SM CLR 11/02 A3006 RMK AO2 PK WND 30030/1457 SLP177 T01060022
KVCT 141451Z 31021G32KT 10SM FEW034 BKN047 09/02 A3004 RMK AO2 PK WND 30032/1445 SLP171 T00940017 52021
KVCT 141351Z 30017G22KT 10SM OVC034 09/02 A3002 RMK AO2 PK WND 30028/1339 SLP163 T00890017
KVCT 141251Z 31017G21KT 10SM OVC036 09/02 A3000 RMK AO2 PK WND 33030/1214 SLP157 T00890017
KVCT 141151Z AUTO 10SM OVC034 09/02 A2998 RMK AO2 SLP149 T00940022 10111 20089 53015
KVCT 141051Z AUTO 10SM OVC034 09/03 A2996 RMK AO2 SLP143 T00940028
KVCT 140951Z AUTO 34010G17KT 10SM BKN044 09/03 A2994 RMK AO2 SLP136 T00940028
KVCT 140851Z AUTO 10SM OVC046 10/02 A2993 RMK AO2 SLP134 T01000022 53003
KVCT 140751Z AUTO 29010G18KT 10SM OVC045 11/02 A2993 RMK AO2 SLP133 T01060017
KVCT 140651Z AUTO 10SM OVC050 11/02 A2992 RMK AO2 SLP131 T01060017
KVCT 140551Z AUTO 10SM OVC048 11/02 A2992 RMK AO2 SLP131 T01060022 10178 20106 402500106 50009
KVCT 140451Z AUTO 33004KT 10SM OVC046 11/02 A2993 RMK AO2 SLP134 T01060022 $
KVCT 140351Z AUTO 10SM OVC049 11/02 A2992 RMK AO2 SLP129 T01110022 $
KVCT 140253Z 29008KT 10SM CLR 12/02 A2990 RMK AO2 T01170017
KVCT 140251Z 10SM CLR 12/02 A2990 RMK AO2 SLP123 T01170017 51025
KVCT 140151Z 30014KT 10SM CLR 12/02 A2988 RMK AO2 SLP118 T01220022
KVCT 140051Z 31030KT 10SM CLR 13/02 A2987 RMK AO2 PK WND 31035/2359 SLP114 T01330022
KVCT 140031Z 10SM CLR 14/02 A2987 RMK AO2 PK WND 31035/2359 T01440022
KVCT 140015Z 10SM CLR 15/02 A2986 RMK AO2 PK WND 31035/2359 T01500022
KVCT 132351Z 29011G30KT 260V320 10SM CLR 18/01 A2982 RMK AO2 PK WND 27030/2346 SLP097 T01780011 10250 20178 53026
KVCT 132251Z 28016G24KT 10SM CLR 21/01 A2979 RMK AO2 PK WND 28027/2228 SLP086 T02060006
KVCT 132151Z 28014G20KT 10SM OVC100 23/03 A2976 RMK AO2 PK WND 29031/2115 SLP077 T02280033
KVCT 132051Z 28013G21KT 10SM BKN095 23/08 A2975 RMK AO2 PK WND 29026/2020 SLP071 T02330078 55005
KVCT 131951Z 28017G25KT 10SM CLR 24/08 A2973 RMK AO2 PK WND 28026/1908 SLP067 T02440083
KVCT 131851Z 29017G23KT 10SM CLR 25/10 A2974 RMK AO2 SLP068 T02500100
KVCT 131751Z 26012KT 10SM CLR 24/14 A2976 RMK AO2 SLP075 T02390139 10239 20167 58008
KVCT 131651Z 25011KT 10SM CLR 23/15 A2978 RMK AO2 SLP083 T02280150
KVCT 131551Z 24011KT 10SM CLR 21/15 A2979 RMK AO2 SLP087 T02060150
KVCT 131451Z 24009KT 10SM CLR 18/14 A2978 RMK AO2 SLP083 T01830144 51024
KVCT 131351Z 24009KT 10SM FEW030 17/14 A2977 RMK AO2 SLP078 T01720144
KVCT 131251Z 25010KT 10SM CLR 17/15 A2975 RMK AO2 SLP071 T01720150
KVCT 131151Z AUTO 24011KT 10SM FEW110 18/16 A2971 RMK AO2 SLP060 60040 70042 T01830161 10194 20183 55014
KVCT 131051Z AUTO 21013G21KT 10SM CLR 19/17 A2971 RMK AO2 SLP059 T01890167
KVCT 130951Z AUTO 20014KT 10SM FEW070 FEW090 BKN110 19/17 A2971 RMK AO2 SLP059 T01890172
KVCT 130851Z AUTO 21013KT 8SM FEW005 BKN100 19/18 A2975 RMK AO2 RAE10 SLP073 P0008 60040 T01890178 58020
KVCT 130843Z AUTO 21010KT 8SM SCT005 SCT055 BKN090 19/18 A2976 RMK AO2 RAE10 P0008 T01890178
KVCT 130751Z AUTO 23009KT 4SM -RA BR BKN006 OVC016 19/18 A2980 RMK AO2 LTG DSNT ALQDS RAB0659E42B51 TSB07E40 SLP089 P0032 T01890178
KVCT 130746Z AUTO 23008KT 8SM BKN006 BKN010 OVC016 19/18 A2980 RMK AO2 LTG DSNT ALQDS RAB0659E42 TSB07E40 P0032
KVCT 130738Z AUTO 22009G18KT 3SM -TSRA BR BKN005 BKN012 OVC016 19/18 A2980 RMK AO2 LTG DSNT NE AND E AND W RAB0659 TSB07 P0031 T01890178
KVCT 130734Z AUTO 22007KT 1 1/2SM -TSRA BR SCT005 BKN010 OVC014 18/18 A2980 RMK AO2 LTG DSNT ALQDS RAB0659 TSB07 P0031 T01830178
KVCT 130725Z AUTO 24006KT 2SM -TSRA BR SCT005 BKN012 OVC016 18/18 A2980 RMK AO2 LTG DSNT N AND NE AND S RAB0659 TSB07 P0019 T01830178
KVCT 130722Z AUTO VRB04KT 1 1/4SM -TSRA BR FEW004 BKN012 OVC016 18/17 A2980 RMK AO2 LTG DSNT N AND S RAB0659 TSB07 P0019 T01830172
KVCT 130714Z AUTO 19004KT 1 3/4SM +TSRA BR SCT004 OVC012 18/17 A2981 RMK AO2 LTG DSNT N RAB0659 TSB07 P0004 T01830172
KVCT 130707Z AUTO 20003KT 5SM -TSRA BR FEW004 OVC012 18/18 A2980 RMK AO2 LTG DSNT N AND SW RAB0659 TSB07 P0001 T01830178